Tiempo atmosférico en la estación meteorológica de Logroño Aeropuerto, La Rioja (353 m.)



Fecha
DESCASC
Temp. máxima en grados centígrados (hora)
DESCASC
Temp. mínima en grados centígrados (hora)
DESCASC
Temp. media en grados centígrados
DESCASC
Racha de viento máxima en m/sg (hora)
DESCASC
Velocidad máxima media en intervalos de 10 minutos(hora)
DESCASC
Precipitaciones diarias en mm
DESCASC
Precipitaciones de 00:00 a 06:00 en mm
DESCASC
Precipitaciones de 06:00 a 12:00 en mm
DESCASC
Precipitaciones de 12:00 a 18:00 en mm
DESCASC
Precipitaciones de 18:00 a 24:00 en mm
DESCASC
03-12-2020 9.8 (14:30) 3.3 (23:40) 6.6 9.72 (13:00) 5.28 (11:40) 0 0 0 0 0
02-12-2020 10 (00:00) 5.5 (19:40) 7.8 9.17 (02:50) 6.11 (14:50) 0 0 0 0 0
01-12-2020 13 (16:20) 4.6 (06:50) 8.8 9.72 (23:00) 6.11 (20:20) 0 0 0 0 0
30-11-2020 14.1 (16:00) 2.4 (00:00) 8.3 6.11 (14:20) 4.17 (23:50) 0 0 0 0 0
29-11-2020 15.2 (15:30) 2.5 (00:00) 8.8 5 (12:40) 3.33 (12:30) 0 0 0 0 0
28-11-2020 15.2 (15:50) 3.6 (00:00) 9.4 7.78 (15:50) 6.11 (16:10) 0 0 0 0 0
27-11-2020 14.8 (13:50) 6.1 (00:00) 10.5 -- (--) -- (--) 0.4 0.3 0 0.1 0
26-11-2020 12.9 (14:10) 8.4 (00:00) 10.6 12.78 (03:20) 9.44 (06:00) 0.1 0 0 0.1 0
25-11-2020 13.2 (15:30) -0.2 (00:00) 6.5 15.28 (16:00) 9.17 (16:00) 0 0 0 0 0
24-11-2020 10.5 (14:40) -2.5 (-00:0) 4 5.83 (13:50) 3.89 (14:00) 0 0 0 0 0
23-11-2020 14.1 (15:30) -1.5 (-00:0) 6.3 3.61 (11:00) 3.33 (16:40) 0 0 0 0 0
22-11-2020 14.6 (15:40) -1.6 (-00:0) 6.5 3.61 (14:50) 2.5 (17:40) 0 0 0 0 0
21-11-2020 15.7 (15:10) 0.5 (00:00) 8.1 6.67 (04:00) 5 (06:10) 0 0 0 0 0
20-11-2020 14.5 (15:00) 5.8 (00:00) 10.2 7.78 (12:10) 5 (12:00) 0 0 0 0 0
19-11-2020 17.1 (12:10) 5.7 (00:00) 11.4 8.33 (23:30) 4.44 (13:10) 0 0 0 0 0
18-11-2020 17.8 (15:50) 2 (00:00) 9.9 3.61 (12:10) 2.22 (20:50) 0 0 0 0 0
17-11-2020 17.9 (15:20) 5.2 (00:00) 11.5 5 (15:50) 3.89 (16:00) 0 0 0 0 0
16-11-2020 16.1 (13:30) 6.2 (00:00) 11.2 5 (13:10) 3.06 (12:10) 3.9 3.9 0 0 0
15-11-2020 12.8 (23:20) 9.8 (00:00) 11.3 4.17 (07:30) 3.06 (10:00) 3.4 0 0 0 3.4
14-11-2020 11.6 (16:40) 8.4 (00:00) 10 5 (01:50) 4.17 (02:40) 0 0 0 0 0
13-11-2020 10.6 (13:10) 8.5 (00:00) 9.6 5 (01:30) 3.89 (01:30) 0 0 0 0 0
12-11-2020 10.2 (16:20) 6.9 (00:00) 8.5 6.67 (22:40) 5.28 (23:00) -- 0 -- 0 0
11-11-2020 9.5 (16:40) 2.8 (00:00) 6.1 4.72 (13:00) 3.61 (13:00) 0 0 0 0 0
10-11-2020 18.8 (14:50) 6.7 (00:00) 12.7 6.11 (12:50) 3.61 (12:10) 0 0 0 0 0
09-11-2020 17.3 (15:30) 7.7 (00:00) 12.5 5 (14:00) 3.06 (13:50) 0 0 0 0 0
08-11-2020 17.4 (16:10) 9.1 (00:00) 13.3 8.33 (17:00) 6.11 (16:50) 0 0 0 0 0
07-11-2020 16.3 (00:20) 11.7 (00:00) 14 14.44 (00:30) 10.83 (05:00) 21.5 1.8 19.7 0 0
06-11-2020 16.6 (17:30) 11.3 (00:00) 14 17.5 (22:20) 11.94 (22:20) 0 0 0 0 0
05-11-2020 15.3 (13:10) 8.3 (00:00) 11.8 11.39 (13:20) 8.89 (15:00) 0.5 0 0 0 0.5

Gráficas

Temp. máximas Temp. mínimas Temp. medias Precipitaciones Rachas de viento máximas Velocidades máximas media en intervalos de 10 minutos

Datos horarios

Fecha y hora oficial Temperatura (ºC) Velocidad del viento (km/h) Dirección del viento Racha (km/h) Dirección de racha Precipitación (mm) Presión (hPa) Tendencia (hPa) Humedad (%)
2020-12-04 23:00:00 4.2 9 Oeste 15 Oeste 0 953.8 -- 84
2020-12-04 22:00:00 3.8 10 Oeste 21 Sudoeste 0 953.5 -- 86
2020-12-04 21:00:00 4.1 15 Oeste 37 Oeste 0.1 952.7 -- 84
2020-12-04 20:00:00 6.5 12 Oeste 33 Oeste 0 952.1 -- 66
2020-12-04 19:00:00 6 3 Sudoeste 11 Sudoeste 0 951.6 -- 67
2020-12-04 18:00:00 6.6 5 Sudoeste 22 Sudoeste 0 950.9 -- 59
2020-12-04 17:00:00 8.2 15 Oeste 32 Oeste 0 950.3 -- 52
2020-12-04 16:00:00 9 22 Oeste 41 Oeste 0 950.3 -- 48
2020-12-04 15:00:00 9.6 23 Oeste 45 Oeste 0 950.4 -- 45
2020-12-04 14:00:00 8.8 23 Oeste 39 Oeste 0 950.6 -- 47
2020-12-04 13:00:00 7.9 16 Oeste 33 Oeste 0 951.1 -- 54
2020-12-04 12:00:00 8.3 13 Oeste 30 Sudoeste 0 951.5 -- 59
2020-12-04 11:00:00 6.7 10 Sudoeste 24 Sudoeste 0 951.6 -- 71
2020-12-04 10:00:00 4.7 15 Oeste 24 Sudoeste 0 951.5 -- 86
2020-12-04 09:00:00 2 5 Noroeste 11 Sudoeste 0 951.5 -- 96
2020-12-04 08:00:00 2.1 7 Oeste 9 Sudoeste 0 951.9 -- 96
2020-12-04 07:00:00 2.7 8 Oeste 30 Sudoeste 1.5 951.7 -- 93
2020-12-04 06:00:00 4.3 13 Sudoeste 22 Sudoeste 2.3 952.7 -- 93
2020-12-04 05:00:00 4.4 9 Sudoeste 18 Sur 2.4 952.2 -- 91
2020-12-04 04:00:00 4.9 14 Sur 18 Sur 2.5 952.9 -- 94
2020-12-04 03:00:00 5.1 4 Sudeste 8 Este 1.3 952.6 -- 88
2020-12-04 02:00:00 5 6 Este 17 Sudeste 1 952.4 -- 86
2020-12-04 01:00:00 5.4 7 Este 13 Este 0 952.3 -- 80
2020-12-04 00:00:00 4.2 8 Este 15 Nordeste 0 953.3 -- 86
2020-12-03 23:00:00 5.9 7 Sur 13 Sur 0 954.3 -- 75
2020-12-03 22:00:00 6.3 3 Este 9 Norte 0 955.9 -- 75
2020-12-03 21:00:00 6.3 8 Norte 22 Sudeste 0 956.8 -- 78
2020-12-03 20:00:00 6.7 5 Norte 17 Sudeste 0 958.3 -- 76
2020-12-03 19:00:00 6.4 4 Noroeste 11 Sur 0 960 -- 77
2020-12-03 18:00:00 7.2 0 Calma 5 Nordeste 0 960.7 -- 69
2020-12-03 17:00:00 8.7 2 Sudoeste 11 Oeste 0 961.7 -- 62
2020-12-03 16:00:00 9 5 Sudoeste 13 Noroeste 0 962.2 -- 60
2020-12-03 15:00:00 9.4 7 Oeste 26 Oeste 0 963.1 -- 57
2020-12-03 14:00:00 9.3 12 Oeste 32 Sudoeste 0 965.3 -- 58
2020-12-03 13:00:00 9.1 18 Oeste 35 Oeste 0 966.7 -- 59
2020-12-03 12:00:00 7.7 15 Oeste 32 Oeste 0 968.6 -- 63
2020-12-03 11:00:00 7.8 17 Oeste 28 Oeste 0 969.5 -- 63
2020-12-03 10:00:00 7 11 Oeste 17 Oeste 0 969.8 -- 73
2020-12-03 09:00:00 4.1 8 Sudoeste 11 Sudoeste 0 970.5 -- 85
2020-12-03 08:00:00 4.8 6 Sudoeste 13 Oeste 0 971.5 -- 81
2020-12-03 07:00:00 5.4 2 Oeste 13 Oeste 0 972.1 -- 77
2020-12-03 06:00:00 5.6 10 Oeste 18 Oeste 0 972.9 -- 76
2020-12-03 05:00:00 6.1 13 Oeste 21 Oeste 0 973.4 -- 73
2020-12-03 04:00:00 5.6 11 Oeste 17 Sudoeste 0 974.1 -- 76
2020-12-03 03:00:00 5.6 10 Oeste 17 Oeste 0 975 -- 76
2020-12-03 02:00:00 5.9 9 Noroeste 26 Oeste 0 975.8 -- 75
2020-12-03 01:00:00 6.7 13 Oeste 21 Oeste 0 976.2 -- 72
2020-12-03 00:00:00 6.6 10 Oeste 17 Oeste 0 976.5 -- 75
2020-12-02 23:00:00 6.3 12 Oeste 17 Oeste 0 977 -- 81
2020-12-02 22:00:00 6.4 10 Oeste 28 Oeste 0 977.5 -- 81
2020-12-02 21:00:00 6.5 17 Oeste 24 Sudoeste 0 977.8 -- 78
2020-12-02 20:00:00 6.1 9 Oeste 21 Oeste 0 977.6 -- 78
2020-12-02 19:00:00 6.4 12 Oeste 26 Oeste 0 977.3 -- 77
2020-12-02 18:00:00 7.3 9 Oeste 26 Noroeste 0 977 -- 73
2020-12-02 17:00:00 8.3 14 Oeste 28 Noroeste 0 976.9 -- 61
2020-12-02 16:00:00 9.8 13 Noroeste 28 Noroeste 0 976.7 -- 56
2020-12-02 15:00:00 9.2 14 Oeste 33 Noroeste 0 976.4 -- 59
2020-12-02 14:00:00 8.7 14 Oeste 28 Oeste 0 976.7 -- 63
2020-12-02 13:00:00 7.7 13 Oeste 28 Oeste 0 977 -- 67
2020-12-02 12:00:00 7.5 15 Oeste 28 Oeste 0 977.3 -- 72
2020-12-02 11:00:00 7.2 14 Oeste 24 Oeste 0 977.5 -- 74
2020-12-02 10:00:00 7 9 Sudoeste 22 Oeste 0 977.5 -- 79
2020-12-02 09:00:00 6.2 14 Oeste 26 Sudoeste 0 977.1 -- 75
2020-12-02 08:00:00 6 13 Oeste 18 Oeste 0 977.1 -- 70
2020-12-02 07:00:00 5.8 10 Oeste 18 Noroeste 0 977.1 -- 69
2020-12-02 06:00:00 6.5 11 Oeste 24 Sudoeste 0 977 -- 62
2020-12-02 05:00:00 6.9 10 Oeste 32 Noroeste 0 977.2 -- 62
2020-12-02 04:00:00 8.1 8 Oeste 24 Oeste 0 977.2 -- 65
2020-12-02 03:00:00 9.4 15 Oeste 33 Oeste 0 976.4 -- 66
2020-12-02 02:00:00 9.5 12 Oeste 22 Oeste 0 976.4 -- 76
2020-12-02 01:00:00 9.1 14 Sudoeste 30 Sudoeste 0 976.4 -- 84
2020-12-02 00:00:00 10 13 Oeste 32 Oeste 0 977.1 -- 72
2020-12-01 23:00:00 10.8 18 Oeste 35 Oeste 0 976.9 -- 61
2020-12-01 22:00:00 10.7 15 Oeste 30 Oeste 0 977.3 -- 62
2020-12-01 21:00:00 10.3 14 Oeste 32 Sudoeste 0 977.9 -- 60
2020-12-01 20:00:00 10.2 13 Oeste 21 Sudoeste 0 978.7 -- 57
2020-12-01 19:00:00 10.3 8 Noroeste 15 Oeste 0 979.1 -- 56
2020-12-01 18:00:00 11.1 6 Oeste 15 Oeste 0 978.9 -- 55
2020-12-01 17:00:00 12.3 8 Oeste 18 Sudoeste 0 978.9 -- 49
2020-12-01 16:00:00 12.7 12 Oeste 21 Oeste 0 979.4 -- 50
2020-12-01 15:00:00 12.3 11 Oeste 22 Oeste 0 979.7 -- 50
2020-12-01 14:00:00 11.2 16 Oeste 24 Oeste 0 980.8 -- 49
2020-12-01 13:00:00 10.3 12 Oeste 24 Oeste 0 981.6 -- 54
2020-12-01 12:00:00 8.9 14 Oeste 30 Oeste 0 982.5 -- 65
2020-12-01 11:00:00 7.3 12 Oeste 26 Oeste 0 983 -- 78
2020-12-01 10:00:00 5.7 17 Oeste 26 Sudoeste 0 983 -- 81
2020-12-01 09:00:00 4.7 16 Oeste 28 Oeste 0 983 -- 89
2020-12-01 08:00:00 4.6 13 Oeste 26 Oeste 0 982.7 -- 91
2020-12-01 07:00:00 4.6 15 Sudoeste 24 Oeste 0 982.7 -- 93
2020-12-01 06:00:00 4.9 16 Oeste 24 Sudoeste 0 982.6 -- 95
2020-12-01 05:00:00 4.9 12 Oeste 21 Oeste 0 982.6 -- 97
2020-12-01 04:00:00 5.5 14 Sudoeste 21 Sudoeste 0 982.7 -- 95
2020-12-01 03:00:00 5.9 14 Sudoeste 21 Oeste 0 983.1 -- 95
2020-12-01 02:00:00 6.1 15 Sudoeste 22 Sudoeste 0 983 -- 95
2020-12-01 01:00:00 6.8 12 Sudoeste 21 Oeste 0 983.2 -- 93
2020-12-01 00:00:00 7.5 12 Oeste 22 Sudoeste 0 983 -- 92
2020-11-30 23:00:00 7.2 9 Oeste 15 Oeste 0 982.8 -- 91
2020-11-30 22:00:00 7.7 9 Oeste 17 Sudoeste 0 982.6 -- 88
2020-11-30 21:00:00 8 12 Sudoeste 15 Sudoeste 0 982.2 -- 88
2020-11-30 20:00:00 9.2 10 Sudoeste 13 Oeste 0 981.8 -- 83
2020-11-30 19:00:00 9.9 11 Sudoeste 15 Oeste 0 981.4 -- 81
2020-11-30 18:00:00 10.8 11 Sudoeste 13 Sudoeste 0 980.8 -- 78
2020-11-30 17:00:00 12.8 9 Oeste 15 Oeste 0 980.4 -- 70
2020-11-30 16:00:00 14 9 Oeste 18 Sudoeste 0 980.2 -- 65
2020-11-30 15:00:00 13.4 13 Sudoeste 22 Oeste 0 980.4 -- 67
2020-11-30 14:00:00 12.1 11 Oeste 18 Oeste 0 980.9 -- 70
2020-11-30 13:00:00 10.9 10 Oeste 17 Oeste 0 981.1 -- 72
2020-11-30 12:00:00 9.5 9 Oeste 18 Oeste 0 981.7 -- 77
2020-11-30 11:00:00 7.3 11 Oeste 17 Oeste 0 981.9 -- 85
2020-11-30 10:00:00 5.5 9 Oeste 13 Oeste 0 981.5 -- 92
2020-11-30 09:00:00 4.3 11 Sudoeste 15 Sudoeste 0 981.1 -- 96
2020-11-30 08:00:00 2.8 7 Oeste 11 Sudoeste 0 980.4 -- 99
2020-11-30 07:00:00 2.7 5 Oeste 11 Sudoeste 0 979.9 -- 98
2020-11-30 06:00:00 3.2 6 Oeste 11 Sudoeste 0 979.5 -- 99
2020-11-30 05:00:00 3.7 8 Sudoeste 11 Sudoeste 0 979.1 -- 98
2020-11-30 04:00:00 4.8 8 Oeste 13 Sudoeste 0 979.2 -- 97
2020-11-30 03:00:00 4.2 7 Sudoeste 9 Oeste 0 978.7 -- 100
2020-11-30 02:00:00 4.7 0 Calma 11 Oeste 0 978.4 -- 97
2020-11-30 01:00:00 4.6 4 Sudoeste 9 Sudoeste 0 978.4 -- 99
2020-11-30 00:00:00 5.1 6 Sudoeste 9 Sudoeste 0 978 -- 99
2020-11-29 23:00:00 5.3 5 Sudoeste 9 Sudoeste 0 977.6 -- 98
2020-11-29 22:00:00 5.8 -- -- -- -- 0 977.3 -- 97
2020-11-29 21:00:00 6.5 2 Sudoeste 5 Oeste 0 976.9 -- 95
2020-11-29 20:00:00 7.6 6 Sudoeste 11 Sudoeste 0 976.5 -- 93
2020-11-29 19:00:00 8.5 0 Calma 9 Oeste 0 975.8 -- 89
2020-11-29 18:00:00 10.9 5 Sudoeste 8 Sudoeste 0 975.1 -- 80
2020-11-29 17:00:00 13.6 2 Sur 11 Este 0 974.5 -- 70
2020-11-29 16:00:00 14.9 10 Este 17 Este 0 974 -- 64
2020-11-29 15:00:00 14.7 8 Este 17 Este 0 973.9 -- 67
2020-11-29 14:00:00 13.8 9 Este 15 Este 0 974.1 -- 70
2020-11-29 13:00:00 12.6 12 Este 18 Este 0 974.5 -- 74
2020-11-29 12:00:00 11.6 11 Este 17 Este 0 975 -- 79
2020-11-29 11:00:00 9 0 Calma 5 Sur 0 975.1 -- 87
2020-11-29 10:00:00 6.1 4 Oeste 5 Sudoeste 0 974.3 -- 97
2020-11-29 09:00:00 3.1 2 Sudoeste 8 Oeste 0 973.3 -- 100
2020-11-29 08:00:00 2.9 0 Calma 5 Oeste 0 972.6 -- 100
2020-11-29 07:00:00 3.8 4 Sudoeste 8 Sudoeste 0 971.9 -- 100
2020-11-29 06:00:00 4 3 Oeste 5 Oeste 0 971.5 -- 100
2020-11-29 05:00:00 4.3 0 Calma 5 Noroeste 0 971 -- 98
2020-11-29 04:00:00 5 2 Noroeste 8 Este 0 970.7 -- 100
2020-11-29 03:00:00 5.5 6 Este 13 Este 0 970.4 -- 99
2020-11-29 02:00:00 5.7 7 Este 11 Este 0 969.9 -- 98
2020-11-29 01:00:00 6.7 8 Este 9 Este 0 969.5 -- 96
2020-11-29 00:00:00 7.9 4 Sudeste 9 Este 0 969 -- 94
2020-11-28 23:00:00 9.1 6 Este 21 Este 0 968.7 -- 87
2020-11-28 22:00:00 10.9 11 Sudeste 17 Sur 0 968.3 -- 84
2020-11-28 21:00:00 10.4 13 Este 15 Este 0 967.9 -- 87
2020-11-28 20:00:00 10.7 13 Este 17 Este 0 967.2 -- 85
2020-11-28 19:00:00 9.4 9 Este 13 Este 0 966.7 -- 91
2020-11-28 18:00:00 10.2 8 Este 18 Este 0 965.6 -- 83
2020-11-28 17:00:00 13.2 15 Este 28 Este 0 965.1 -- 72
2020-11-28 16:00:00 15 20 Este 28 Este 0 964.5 -- 63
2020-11-28 15:00:00 14.5 15 Este 22 Este 0 964.1 -- 70
2020-11-28 14:00:00 13.2 9 Este 15 Este 0 964.4 -- 78
2020-11-28 13:00:00 11.3 8 Este 11 Este 0 964.8 -- 89
2020-11-28 12:00:00 9.5 4 Oeste 9 Sudoeste 0 965.1 -- 97
2020-11-28 11:00:00 7.2 2 Oeste 5 Nordeste 0 965.7 -- 100
2020-11-28 10:00:00 5.6 3 Este 5 Este 0 965.7 -- 100
2020-11-28 09:00:00 4.8 3 Sudoeste 9 Sudoeste 0 965.6 -- 100
2020-11-28 08:00:00 3.7 0 Calma 4 Noroeste 0 965.1 -- 100
2020-11-28 07:00:00 5.5 0 Calma 9 Oeste 0 964.6 -- 100
2020-11-28 06:00:00 6.1 2 Sudoeste 4 Sudoeste 0 964.6 -- 100
2020-11-28 05:00:00 6.7 0 Calma 4 Noroeste 0 965 -- 100
2020-11-28 04:00:00 6.6 0 Calma 8 Sudoeste 0 965.5 -- 100
2020-11-28 03:00:00 5.6 5 Nordeste 9 Nordeste 0 966.2 -- 100
2020-11-28 02:00:00 6.3 0 Calma 9 Sudoeste 0 966 -- 100
2020-11-28 01:00:00 6.8 6 Sudoeste 9 Sudoeste 0 966.5 -- 100
2020-11-28 00:00:00 6.3 3 Oeste 8 Oeste 0 967.1 -- 100
2020-11-27 23:00:00 6.4 5 Nordeste 8 Norte 0 967.3 -- 98
2020-11-27 22:00:00 8.1 3 Nordeste 8 Este 0 967.5 -- 98
2020-11-27 21:00:00 9.5 0 Calma -- -- 0 967.9 -- 98
2020-11-27 20:00:00 9.7 7 Nordeste -- -- 0 967.9 -- 97
2020-11-27 19:00:00 10.2 6 Este 9 Este 0 967.9 -- 95
2020-11-27 18:00:00 11.8 6 Este 9 Este 0 968 -- 90
2020-11-27 17:00:00 12.9 6 Este -- -- 0 968.2 -- 88
2020-11-27 16:00:00 13.1 7 Este 15 Este 0.1 968.3 -- 89
2020-11-27 15:00:00 14 13 Este 21 Nordeste 0 968.7 -- 77
2020-11-27 14:00:00 14.6 15 Este 21 Nordeste 0 969.6 -- 77
2020-11-27 13:00:00 14.3 14 Nordeste 21 Nordeste 0 970.2 -- 83
2020-11-27 12:00:00 12.2 11 Este 15 Este 0 971.3 -- 95
2020-11-27 11:00:00 10.9 9 Este 13 Este 0 971.6 -- 99
2020-11-27 10:00:00 10.4 9 Este -- -- 0 971.6 -- 100
2020-11-27 09:00:00 9.6 4 Norte 13 Este 0 971.6 -- 100
2020-11-27 08:00:00 9.6 10 Este 15 Nordeste 0 971.2 -- 100
2020-11-27 07:00:00 9.8 8 Nordeste 13 Nordeste 0 971.5 -- 100
2020-11-27 06:00:00 10.6 6 Nordeste 21 Este 0.3 971.5 -- 99
2020-11-27 05:00:00 10.9 4 Este 22 Nordeste 0 971.9 -- 97
2020-11-27 04:00:00 11.4 16 Nordeste 22 Nordeste 0 972.3 -- 96
2020-11-27 03:00:00 11.5 18 Nordeste 24 Nordeste 0 972.4 -- 94
2020-11-27 02:00:00 11.5 15 Este 22 Este 0 972.5 -- 95
2020-11-27 01:00:00 11.6 15 Nordeste 28 Nordeste 0 973 -- 94
2020-11-27 00:00:00 11.6 15 Nordeste 21 Nordeste 0 973 -- 95
2020-11-26 23:00:00 11.6 12 Nordeste 17 Este 0 972.6 -- 95
2020-11-26 22:00:00 11.4 9 Nordeste 22 Norte 0 972.6 -- 95
2020-11-26 21:00:00 11.3 12 Norte 17 Norte 0 972.5 -- 95
2020-11-26 20:00:00 11 7 Norte 18 Nordeste 0 972.7 -- 96
2020-11-26 19:00:00 11.4 19 Nordeste 28 Norte 0 972.3 -- 93
2020-11-26 18:00:00 11.2 11 Nordeste 17 Nordeste 0 972.5 -- 94
2020-11-26 17:00:00 11 8 Norte 32 Este 0.1 972 -- 94
2020-11-26 16:00:00 11.9 17 Este 32 Este 0 971.9 -- 85
2020-11-26 15:00:00 11.8 19 Nordeste 37 Este 0 971.8 -- 85
2020-11-26 14:00:00 12.8 21 Este 33 Este 0 972.1 -- 81
2020-11-26 13:00:00 11.3 19 Este 30 Este 0 972.6 -- 86
2020-11-26 12:00:00 10.7 15 Nordeste 26 Nordeste 0 973.2 -- 87
2020-11-26 11:00:00 10.8 18 Nordeste 30 Nordeste 0 973.1 -- 86
2020-11-26 10:00:00 10 19 Nordeste 28 Nordeste 0 973 -- 90
2020-11-26 09:00:00 9.5 19 Nordeste 32 Nordeste 0 972.7 -- 91
2020-11-26 08:00:00 8.6 22 Nordeste 37 Este 0 972.4 -- 95
2020-11-26 07:00:00 8.7 29 Nordeste 45 Este 0 972 -- 94
2020-11-26 06:00:00 8.8 34 Este 45 Este 0 971.6 -- 92
2020-11-26 05:00:00 8.9 22 Nordeste 35 Nordeste 0 971.7 -- 92
2020-11-26 04:00:00 9.1 23 Este 46 Este 0 971.8 -- 90
2020-11-26 03:00:00 9.5 29 Este 42 Este 0 971.5 -- 89
2020-11-26 02:00:00 9.6 33 Este 45 Este 0 971.4 -- 88
2020-11-26 01:00:00 9.7 23 Nordeste 33 Nordeste 0 971.7 -- 89
2020-11-26 00:00:00 8.4 12 Nordeste 17 Nordeste 0 971.6 -- 90
2020-11-25 23:00:00 8.8 9 Nordeste 18 Este 0 971.7 -- 87
2020-11-25 22:00:00 8.9 12 Este 24 Nordeste 0 971.7 -- 87
2020-11-25 21:00:00 10.1 20 Nordeste 32 Este 0 971.6 -- 83
2020-11-25 20:00:00 9.9 13 Este 30 Este 0 971.5 -- 81
2020-11-25 19:00:00 9.4 12 Este 30 Este 0 971.3 -- 81
2020-11-25 18:00:00 11.1 23 Este 32 Este 0 971.1 -- 72
2020-11-25 17:00:00 12.1 25 Este 45 Este 0 970.9 -- 69
2020-11-25 16:00:00 12.9 33 Este 55 Este 0 970.5 -- 62
2020-11-25 15:00:00 12.7 30 Este 39 Este 0 971 -- 64
2020-11-25 14:00:00 11.6 23 Este 30 Este 0 971.8 -- 72
2020-11-25 13:00:00 9 9 Este -- -- -- 972.9 -- 83
2020-11-25 12:00:00 6.6 4 Este 9 Este 0 974.3 -- 88
2020-11-25 11:00:00 5.5 3 Este 8 Nordeste 0 974.8 -- 92
2020-11-25 10:00:00 4.8 2 Sur 5 Sur 0 974.9 -- 94
2020-11-25 09:00:00 4.1 3 Oeste 4 Oeste 0 974.6 -- 96
2020-11-25 08:00:00 3.6 2 Oeste 8 Norte 0 974.5 -- 96
2020-11-25 07:00:00 3.4 0 Calma 5 Oeste 0 974.4 -- 98
2020-11-25 06:00:00 2.8 0 Calma 5 Oeste 0 974.3 -- 99
2020-11-25 05:00:00 2.4 4 Oeste 5 Oeste 0 974.6 -- 100
2020-11-25 04:00:00 2 2 Noroeste 4 Norte 0 974.8 -- 100
2020-11-25 03:00:00 0.5 0 Calma 4 Noroeste 0 975.1 -- 100
2020-11-25 02:00:00 0.3 2 Sur 9 Oeste 0 975.4 -- 100
2020-11-25 01:00:00 0.7 5 Oeste 5 Oeste 0 975.9 -- 100
2020-11-25 00:00:00 1.1 0 Calma 8 Oeste 0 976.3 -- 97
2020-11-24 23:00:00 1.1 0 Calma 5 Oeste 0 976.6 -- 98
2020-11-24 22:00:00 2.1 0 Calma 5 Oeste 0 976.7 -- 95
2020-11-24 21:00:00 2.6 0 Calma 5 Oeste 0 976.9 -- 92
2020-11-24 20:00:00 3.4 0 Calma 8 Noroeste 0 977 -- 92
2020-11-24 19:00:00 5.2 3 Noroeste 5 Este 0 977.2 -- 88
2020-11-24 18:00:00 7.2 5 Este 11 Este 0 977.1 -- 74
2020-11-24 17:00:00 9.4 10 Este 17 Este 0 977.2 -- 65
2020-11-24 16:00:00 10.3 10 Este 18 Este 0 977.6 -- 62
2020-11-24 15:00:00 9.8 11 Este 21 Este 0 978.2 -- 64
2020-11-24 14:00:00 9.5 14 Este 21 Este 0 979.2 -- 66
2020-11-24 13:00:00 9 11 Este 17 Este 0 980 -- 69
2020-11-24 12:00:00 7.6 8 Este 13 Este 0 981.1 -- 76
2020-11-24 11:00:00 4.7 0 Calma 5 Oeste 0 981.6 -- 85
2020-11-24 10:00:00 1.4 2 Oeste 5 Oeste 0 981.9 -- 97
2020-11-24 09:00:00 -0.9 0 Calma 2 Oeste 0 981.7 -- 100
2020-11-24 08:00:00 -1.9 0 Calma 4 Oeste 0 981.6 -- 100
2020-11-24 07:00:00 -2 0 Calma -- -- 0 981.4 -- 100
2020-11-24 06:00:00 -1.3 2 Oeste 4 Oeste 0 981.5 -- 100
2020-11-24 05:00:00 -1.7 0 Calma 5 Sudoeste 0 981.6 -- 100
2020-11-24 04:00:00 -0.4 3 Oeste 5 Oeste 0 982 -- 100
2020-11-24 03:00:00 -0.1 0 Calma 4 Oeste 0 982.4 -- 100
2020-11-24 02:00:00 0.8 2 Sudoeste -- -- 0 982.8 -- 100
2020-11-24 01:00:00 0.1 0 Calma 4 Oeste 0 983.3 -- 98
2020-11-24 00:00:00 1.3 0 Calma 4 Oeste 0 983.6 -- 98
2020-11-23 23:00:00 2.3 2 Oeste 4 Oeste 0 983.9 -- 97
2020-11-23 22:00:00 3 0 Calma 4 Sudoeste 0 984 -- 91
2020-11-23 21:00:00 3.6 0 Calma 4 Oeste 0 983.9 -- 89
2020-11-23 20:00:00 4.8 0 Calma 5 Noroeste 0 984 -- 87
2020-11-23 19:00:00 6.2 3 Norte 8 Norte 0 983.7 -- 80
2020-11-23 18:00:00 9.4 8 Sudeste 13 Este 0 983.7 -- 62
2020-11-23 17:00:00 12.1 10 Este 13 Este 0 983.4 -- 54
2020-11-23 16:00:00 13.7 9 Este 13 Este 0 983.4 -- 47
2020-11-23 15:00:00 13.8 8 Este 11 Este 0 983.9 -- 48
2020-11-23 14:00:00 12.4 6 Norte 11 Nordeste 0 984.5 -- 55
2020-11-23 13:00:00 10.8 4 Norte 9 Sudeste 0 985.4 -- 59
2020-11-23 12:00:00 9.1 5 Este 11 Este 0 986.3 -- 65
2020-11-23 11:00:00 6.5 8 Nordeste 13 Este 0 986.3 -- 81
2020-11-23 10:00:00 3.9 3 Norte 5 Norte 0 986.2 -- 93
2020-11-23 09:00:00 -0.7 0 Calma 4 Sudeste 0 985.8 -- 100
2020-11-23 08:00:00 -0.4 0 Calma -- -- 0 985.6 -- 100
2020-11-23 07:00:00 -0.6 0 Calma 4 Oeste 0 985.1 -- 100
2020-11-23 06:00:00 -0.6 5 Norte 9 Sudoeste 0 985.4 -- 97
2020-11-23 05:00:00 0.1 3 Este 11 Sudoeste 0 985.4 -- 99
2020-11-23 04:00:00 1.3 8 Sudoeste 11 Sudoeste 0 985.5 -- 98
2020-11-23 03:00:00 1 4 Oeste 9 Oeste 0 985.6 -- 99
2020-11-23 02:00:00 1.1 5 Sudoeste 9 Sudoeste 0 985.7 -- 98
2020-11-23 01:00:00 1.8 4 Sudoeste 9 Oeste 0 985.9 -- 95
2020-11-23 00:00:00 1.7 2 Sudoeste 9 Oeste 0 985.8 -- 98
2020-11-22 23:00:00 2.1 3 Oeste 4 Oeste 0 985.8 -- 98
2020-11-22 22:00:00 2.4 0 Calma 5 Oeste 0 985.4 -- 93
2020-11-22 21:00:00 4 4 Oeste 5 Oeste 0 985.4 -- 88
2020-11-22 20:00:00 5 3 Oeste 5 Oeste 0 985 -- 86
2020-11-22 19:00:00 6.7 3 Nordeste 11 Sudeste 0 984.4 -- 73
2020-11-22 18:00:00 9.6 9 Sudeste 11 Sudeste 0 983.9 -- 59
2020-11-22 17:00:00 12.6 4 Este 8 Este 0 983.6 -- 50
2020-11-22 16:00:00 14.1 4 Nordeste 9 Norte 0 983.6 -- 42
2020-11-22 15:00:00 13.5 4 Este 13 Nordeste 0 983.9 -- 43
2020-11-22 14:00:00 12.8 4 Sur 9 Sudeste 0 984.5 -- 44
2020-11-22 13:00:00 11.2 4 Sudeste 9 Sudeste 0 985.4 -- 52
2020-11-22 12:00:00 8.5 6 Oeste 9 Oeste 0 986.2 -- 63
2020-11-22 11:00:00 5.7 4 Sur 8 Sur 0 986.8 -- 77
2020-11-22 10:00:00 2.6 3 Noroeste 5 Oeste 0 986.8 -- 86
2020-11-22 09:00:00 0.1 4 Sudoeste 5 Oeste 0 986.7 -- 94
2020-11-22 08:00:00 -1.5 3 Oeste 8 Oeste 0 986.4 -- 98
2020-11-22 07:00:00 -0.8 5 Oeste 8 Oeste 0 986.1 -- 99
2020-11-22 06:00:00 -1 3 Oeste 5 Oeste 0 985.8 -- 99
2020-11-22 05:00:00 -1.1 2 Noroeste 4 Noroeste 0 985.7 -- 98
2020-11-22 04:00:00 -0.3 3 Oeste -- -- 0 985.9 -- 98
2020-11-22 03:00:00 -0.1 0 Calma 4 Sudoeste 0 986 -- 98
2020-11-22 02:00:00 0 2 Oeste 4 Oeste 0 985.8 -- 96
2020-11-22 01:00:00 0.6 3 Oeste 8 Oeste 0 985.9 -- 97
2020-11-22 00:00:00 0.7 3 Oeste 8 Oeste 0 986 -- 95
2020-11-21 23:00:00 1.7 0 Calma 5 Oeste 0 986.1 -- 94
2020-11-21 22:00:00 1.9 0 Calma 4 Norte 0 986.1 -- 87
2020-11-21 21:00:00 4.1 0 Calma -- -- 0 985.9 -- 78
2020-11-21 20:00:00 5.1 0 Calma 5 Noroeste 0 985.6 -- 75
2020-11-21 19:00:00 6.6 0 Calma 11 Este 0 985.4 -- 68
2020-11-21 18:00:00 8.8 9 Este 15 Este 0 985 -- 53
2020-11-21 17:00:00 13.2 12 Este 15 Este 0 984.6 -- 38
2020-11-21 16:00:00 15.1 12 Este 21 Este 0 984.5 -- 29
2020-11-21 15:00:00 15.4 8 Este 15 Nordeste 0 984.8 -- 25
2020-11-21 14:00:00 14.1 7 Sur 18 Sudoeste 0 985.2 -- 33
2020-11-21 13:00:00 12.4 12 Oeste 21 Oeste 0 985.8 -- 40
2020-11-21 12:00:00 10.8 13 Oeste 24 Oeste 0 986.7 -- 48
2020-11-21 11:00:00 8.7 11 Oeste 22 Oeste 0 987.1 -- 57
2020-11-21 10:00:00 6.6 13 Oeste 24 Oeste 0 986.7 -- 67
2020-11-21 09:00:00 4.5 12 Sudoeste 17 Oeste 0 986.5 -- 79
2020-11-21 08:00:00 3.9 10 Oeste 18 Sudoeste 0 986.2 -- 83
2020-11-21 07:00:00 4.3 14 Oeste 24 Oeste 0 985.8 -- 82
2020-11-21 06:00:00 4.4 16 Oeste 22 Oeste 0 985.8 -- 84
2020-11-21 05:00:00 4.7 13 Oeste 22 Oeste 0 986 -- 85
2020-11-21 04:00:00 4.7 15 Oeste 24 Sudoeste 0 986.8 -- 86
2020-11-21 03:00:00 5.3 12 Oeste 22 Oeste 0 987.5 -- 84
2020-11-21 02:00:00 5.1 10 Oeste 21 Oeste 0 988 -- 85
2020-11-21 01:00:00 5.8 12 Oeste 21 Oeste 0 988.9 -- 82
2020-11-21 00:00:00 6 14 Oeste 21 Sudoeste 0 989 -- 82
2020-11-20 23:00:00 6.5 10 Oeste 21 Oeste 0 989.5 -- 80
2020-11-20 22:00:00 6.9 10 Oeste 15 Oeste 0 989.5 -- 78
2020-11-20 21:00:00 7 8 Oeste 15 Oeste 0 989.5 -- 77
2020-11-20 20:00:00 7.8 8 Oeste 18 Oeste 0 989.8 -- 71
2020-11-20 19:00:00 9.3 12 Oeste 21 Sudoeste 0 990.2 -- 61
2020-11-20 18:00:00 10.4 6 Sudoeste 13 Oeste 0 989.9 -- 60
2020-11-20 17:00:00 12.3 9 Noroeste 22 Noroeste 0 989.7 -- 53
2020-11-20 16:00:00 13.6 13 Noroeste 24 Noroeste 0 989.5 -- 46
2020-11-20 15:00:00 14.4 10 Noroeste 24 Noroeste 0 989.5 -- 47
2020-11-20 14:00:00 13.6 15 Oeste 26 Oeste 0 990.2 -- 55
2020-11-20 13:00:00 12.9 14 Oeste 28 Noroeste 0 991.3 -- 58
2020-11-20 12:00:00 12.3 18 Oeste 26 Oeste 0 991.8 -- 63
2020-11-20 11:00:00 11.6 10 Oeste 24 Oeste 0 992.5 -- 66
2020-11-20 10:00:00 10.4 12 Oeste 26 Oeste 0 992.7 -- 71
2020-11-20 09:00:00 8.6 12 Oeste 26 Oeste 0 992.2 -- 78
2020-11-20 08:00:00 8 14 Oeste 24 Oeste 0 992.1 -- 83
2020-11-20 07:00:00 7.4 12 Oeste 17 Sudoeste 0 992.1 -- 87
2020-11-20 06:00:00 6.6 6 Oeste 15 Oeste 0 992.3 -- 91
2020-11-20 05:00:00 7.7 10 Oeste 18 Oeste 0 992.5 -- 87
2020-11-20 04:00:00 7.6 5 Oeste 18 Sudoeste 0 993 -- 88
2020-11-20 03:00:00 7.5 8 Oeste 11 Oeste 0 993.1 -- 87
2020-11-20 02:00:00 8.8 6 Oeste 17 Oeste 0 992.9 -- 78
2020-11-20 01:00:00 8.9 8 Oeste 15 Noroeste 0 993.6 -- 79
2020-11-20 00:00:00 9.9 9 Oeste 30 Sudoeste 0 993.7 -- 77
2020-11-19 23:00:00 10.1 10 Oeste 22 Sudoeste 0 994.1 -- 81
2020-11-19 22:00:00 9.2 7 Sur 18 Sudoeste 0 993.6 -- 86
2020-11-19 21:00:00 10 11 Sudoeste 24 Oeste 0 993.3 -- 81
2020-11-19 20:00:00 10.4 10 Oeste 22 Oeste 0 993.4 -- 78
2020-11-19 19:00:00 11 8 Sudoeste 15 Oeste 0 993.1 -- 79
2020-11-19 18:00:00 12.3 8 Oeste 24 Oeste 0 992.7 -- 74
2020-11-19 17:00:00 13.6 10 Noroeste 26 Norte 0 992.4 -- 72
2020-11-19 16:00:00 14.9 7 Noroeste 24 Noroeste 0 991.7 -- 71
2020-11-19 15:00:00 15.3 6 Noroeste 21 Noroeste 0 990.8 -- 70
2020-11-19 14:00:00 16 11 Oeste 24 Oeste 0 991 -- 74
2020-11-19 13:00:00 16.6 13 Oeste 26 Noroeste 0 991.3 -- 72
2020-11-19 12:00:00 16.6 8 Sudoeste 18 Oeste 0 991.4 -- 77
2020-11-19 11:00:00 14 5 Noroeste 15 Oeste 0 991.7 -- 86
2020-11-19 10:00:00 12.2 10 Oeste 18 Sudoeste 0 991.6 -- 87
2020-11-19 09:00:00 11.4 9 Oeste 17 Sudoeste 0 990.9 -- 88
2020-11-19 08:00:00 9.4 7 Oeste 13 Oeste 0 989.9 -- 94
2020-11-19 07:00:00 10.4 2 Sudoeste 18 Oeste 0 989.5 -- 89
2020-11-19 06:00:00 9.9 12 Sudoeste 17 Oeste 0 988.8 -- 90
2020-11-19 05:00:00 8.4 11 Sudoeste 17 Sudoeste 0 987.9 -- 99
2020-11-19 04:00:00 7 9 Oeste 15 Oeste 0 987.5 -- 100
2020-11-19 03:00:00 6.6 2 Este 13 Sudoeste 0 987.1 -- 97
2020-11-19 02:00:00 6.3 4 Oeste -- -- 0 987 -- 100
2020-11-19 01:00:00 6.1 3 Sur 8 Norte 0 987 -- 99
2020-11-19 00:00:00 7.8 6 Sudoeste 9 Sudoeste 0 986.7 -- 99
2020-11-18 23:00:00 7 3 Norte 8 Sudoeste 0 986.3 -- 97
2020-11-18 22:00:00 8.3 3 Oeste 11 Norte 0 985.9 -- 97
2020-11-18 21:00:00 9.7 8 Oeste 11 Sudoeste 0 985.2 -- 92
2020-11-18 20:00:00 9.2 0 Calma 5 Norte 0 984.8 -- 92
2020-11-18 19:00:00 10.7 0 Calma 5 Oeste 0 984.3 -- 86
2020-11-18 18:00:00 14 0 Calma 5 Este 0 983.9 -- 73
2020-11-18 17:00:00 16.8 4 Este 9 Este 0 983.6 -- 61
2020-11-18 16:00:00 17.7 3 Este 9 Nordeste 0 983.7 -- 56
2020-11-18 15:00:00 17.3 4 Sur 11 Sudeste 0 983.9 -- 57
2020-11-18 14:00:00 16.3 4 Este 11 Este 0 984.4 -- 60
2020-11-18 13:00:00 14.8 6 Sudeste 13 Este 0 985.1 -- 66
2020-11-18 12:00:00 13.2 6 Este 11 Sudeste 0 985.8 -- 73
2020-11-18 11:00:00 9.6 0 Calma 5 Oeste 0 986 -- 86
2020-11-18 10:00:00 6.4 3 Oeste 5 Oeste 0 985.7 -- 96
2020-11-18 09:00:00 3.4 4 Oeste 5 Oeste 0 985.5 -- 100
2020-11-18 08:00:00 2.9 4 Oeste 5 Oeste 0 984.8 -- 100
2020-11-18 07:00:00 3.1 0 Calma 4 Sudoeste 0 984.3 -- 100
2020-11-18 06:00:00 3.3 0 Calma 5 Sudoeste 0 984.1 -- 99
2020-11-18 05:00:00 3.8 3 Oeste 5 Oeste 0 984 -- 100
2020-11-18 04:00:00 3.8 0 Calma -- -- 0 983.9 -- 100
2020-11-18 03:00:00 3.7 0 Calma 4 Sudoeste 0 983.9 -- 98
2020-11-18 02:00:00 4.2 0 Calma 4 Oeste 0 984.1 -- 99
2020-11-18 01:00:00 5.2 4 Oeste 5 Oeste 0 984.4 -- 100
2020-11-18 00:00:00 5.3 2 Noroeste 4 Noroeste 0 984.2 -- 99
2020-11-17 23:00:00 5.7 0 Calma 4 Oeste 0 984.2 -- 96
2020-11-17 22:00:00 6.9 0 Calma 4 Oeste 0 984 -- 97
2020-11-17 21:00:00 7.3 3 Este 5 Oeste 0 983.8 -- 90
2020-11-17 20:00:00 9.1 0 Calma 5 Sudoeste 0 983.7 -- 86
2020-11-17 19:00:00 10.5 3 Norte 8 Este 0 983.1 -- 78
2020-11-17 18:00:00 12.8 5 Este 13 Este 0 982.6 -- 66
2020-11-17 17:00:00 16.6 12 Este 17 Este 0 982.5 -- 53
2020-11-17 16:00:00 17.8 14 Este 18 Este 0 982.5 -- 51
2020-11-17 15:00:00 17.6 13 Este 17 Este 0 982.6 -- 54
2020-11-17 14:00:00 17.3 10 Este 15 Nordeste 0 982.9 -- 57
2020-11-17 13:00:00 15.8 5 Sur 9 Sur 0 983.3 -- 59
2020-11-17 12:00:00 13.4 2 Oeste 8 Sur 0 984.3 -- 67
2020-11-17 11:00:00 11.6 3 Sudeste 8 Sudeste 0 984.7 -- 72
2020-11-17 10:00:00 9.2 2 Oeste 8 Sudoeste 0 984.6 -- 79
2020-11-17 09:00:00 6.9 4 Sudoeste 8 Sudoeste 0 984.2 -- 89
2020-11-17 08:00:00 5.9 5 Sudoeste 9 Oeste 0 983.6 -- 93
2020-11-17 07:00:00 6.6 5 Oeste 13 Sudoeste 0 983.5 -- 91
2020-11-17 06:00:00 7.1 10 Sudoeste 15 Sudoeste 0 983.6 -- 91
2020-11-17 05:00:00 6.8 8 Sudoeste 15 Oeste 0 983.4 -- 95
2020-11-17 04:00:00 7.2 10 Sudoeste 15 Sudoeste 0 983.8 -- 96
2020-11-17 03:00:00 6.9 6 Sudoeste 9 Sudoeste 0 983.8 -- 99
2020-11-17 02:00:00 6.8 4 Oeste 11 Sudoeste 0 984 -- 98
2020-11-17 01:00:00 6.4 9 Sudoeste 11 Sudoeste 0 984.2 -- 100
2020-11-17 00:00:00 6.5 6 Oeste 9 Sudoeste 0 984.3 -- 99
2020-11-16 23:00:00 6.7 3 Oeste 8 Oeste 0 984.6 -- 97
2020-11-16 22:00:00 7.2 2 Nordeste 9 Este 0 984.3 -- 94
2020-11-16 21:00:00 8.1 4 Norte 8 Nordeste 0 984.1 -- 90
2020-11-16 20:00:00 9.5 7 Sudoeste 9 Sudoeste 0 983.9 -- 88
2020-11-16 19:00:00 11.1 3 Sudeste 8 Este 0 983.5 -- 81
2020-11-16 18:00:00 12.7 3 Sur -- -- -- 983.1 -- 76
2020-11-16 17:00:00 15.1 2 Sudoeste 11 Norte 0 982.8 -- 63
2020-11-16 16:00:00 15.5 6 Oeste 13 Oeste 0 982.9 -- 62
2020-11-16 15:00:00 15.8 6 Oeste 13 Oeste 0 982.7 -- 61
2020-11-16 14:00:00 15.8 8 Oeste 18 Sudoeste 0 982.6 -- 64
2020-11-16 13:00:00 15 10 Oeste 17 Sudoeste 0 983 -- 72
2020-11-16 12:00:00 14.9 10 Sudoeste 15 Sudoeste 0 983.3 -- 76
2020-11-16 11:00:00 13.3 8 Sudoeste 11 Oeste 0 983.2 -- 85
2020-11-16 10:00:00 12.5 8 Sudoeste 13 Sudoeste 0 982.7 -- 90
2020-11-16 09:00:00 11.7 6 Oeste 11 Oeste 0 982.4 -- 97
2020-11-16 08:00:00 11.8 9 Oeste 13 Oeste 0 981.7 -- 96
2020-11-16 07:00:00 11.7 9 Oeste 13 Oeste 0 981.2 -- 97
2020-11-16 06:00:00 11.7 6 Sudoeste 11 Sudoeste 0 980.5 -- 98
2020-11-16 05:00:00 11.6 6 Oeste 9 Sudoeste 0 980.6 -- 99
2020-11-16 04:00:00 11.7 5 Sudoeste 9 Sur 0.1 980.1 -- 99
2020-11-16 03:00:00 11.6 4 Sudoeste 8 Oeste 0 979.9 -- 99
2020-11-16 02:00:00 11.8 5 Sur 15 Noroeste 1.5 979.5 -- 99
2020-11-16 01:00:00 12.3 5 Oeste 11 Oeste 2.3 979.4 -- 99
2020-11-16 00:00:00 12.7 0 Calma 9 Este 2.8 978.6 -- 100
2020-11-15 23:00:00 12.4 4 Sudeste 9 Sudeste 0.6 977.9 -- 99
2020-11-15 22:00:00 12.2 5 Norte 9 Sur 0 976.9 -- 98
2020-11-15 21:00:00 11.9 5 Nordeste 9 Este 0 976 -- 98
2020-11-15 20:00:00 12 4 Norte 9 Noroeste 0 975.5 -- 97
2020-11-15 19:00:00 12.2 3 Noroeste 9 Sur 0 975.1 -- 94
2020-11-15 18:00:00 12.2 5 Sudoeste 9 Oeste 0 974.9 -- 94
2020-11-15 17:00:00 12.5 5 Oeste 8 Oeste 0 975.2 -- 92
2020-11-15 16:00:00 12.6 0 Calma 5 Oeste 0 975.3 -- 90
2020-11-15 15:00:00 12.5 2 Nordeste 9 Este 0 975.4 -- 89
2020-11-15 14:00:00 11.9 7 Sudeste 13 Sudeste 0 975.3 -- 92
2020-11-15 13:00:00 11.3 6 Este 13 Sudeste 0 975.7 -- 93
2020-11-15 12:00:00 11 8 Este 13 Este 0 976.3 -- 95
2020-11-15 11:00:00 10.4 9 Este 15 Este 0 976.4 -- 98
2020-11-15 10:00:00 10.2 11 Este 15 Este 0 976.2 -- 99
2020-11-15 09:00:00 9.9 8 Este 13 Este 0 976.2 -- 100
2020-11-15 08:00:00 9.9 8 Este 15 Este 0 976 -- 100
2020-11-15 07:00:00 10.1 8 Este 13 Este 0 975.7 -- 99
2020-11-15 06:00:00 10 10 Este 13 Sudeste 0 975.6 -- 99
2020-11-15 05:00:00 10.4 3 Sur 8 Sur 0 976.2 -- 98
2020-11-15 04:00:00 10.5 5 Este 8 Sudeste 0 975.8 -- 97
2020-11-15 03:00:00 10.6 4 Sur 9 Este 0 976.4 -- 97
2020-11-15 02:00:00 10.6 7 Este 11 Este 0 976.4 -- 98
2020-11-15 01:00:00 10.8 4 Sur 9 Norte 0 977.1 -- 97
2020-11-15 00:00:00 11.1 3 Norte 8 Norte 0 977.2 -- 97
2020-11-14 23:00:00 11.1 9 Nordeste 11 Nordeste 0 977.3 -- 97
2020-11-14 22:00:00 11.3 6 Este 9 Este 0 977.4 -- 97
2020-11-14 21:00:00 11.3 0 Calma -- -- 0 977.4 -- 97
2020-11-14 20:00:00 11.4 5 Este 8 Sudeste 0 977.5 -- 95
2020-11-14 19:00:00 11.4 4 Este 13 Nordeste 0 977.2 -- 95
2020-11-14 18:00:00 11.4 8 Nordeste 15 Nordeste 0 976.8 -- 95
2020-11-14 17:00:00 11.4 12 Nordeste 18 Nordeste 0 976.9 -- 95
2020-11-14 16:00:00 11 9 Nordeste 15 Este 0 976.8 -- 95
2020-11-14 15:00:00 10.6 11 Este 15 Este 0 977.4 -- 96
2020-11-14 14:00:00 10.2 8 Este 11 Nordeste 0 978.1 -- 96
2020-11-14 13:00:00 9.8 4 Nordeste 9 Este 0 978.8 -- 98
2020-11-14 12:00:00 9.5 5 Este 8 Este 0 979.1 -- 99
2020-11-14 11:00:00 9.2 3 Este 5 Este 0 979.2 -- 98
2020-11-14 10:00:00 8.7 2 Oeste 5 Sur 0 979.2 -- 98
2020-11-14 09:00:00 8.5 5 Sur 9 Sur 0 978.9 -- 96
2020-11-14 08:00:00 8.5 5 Sudeste 8 Sudeste 0 978.3 -- 98
2020-11-14 07:00:00 8.8 3 Sudoeste 9 Este 0 978.1 -- 99
2020-11-14 06:00:00 8.9 8 Este 17 Nordeste 0 977.9 -- 100
2020-11-14 05:00:00 8.9 10 Nordeste 17 Este 0 977.8 -- 100
2020-11-14 04:00:00 8.9 9 Este 15 Este 0 978.2 -- 100
2020-11-14 03:00:00 8.9 12 Nordeste 18 Este 0 978.4 -- 100
2020-11-14 02:00:00 9 11 Este 18 Este 0 978.9 -- 100
2020-11-14 01:00:00 9.1 10 Este 13 Este 0 979.3 -- 99
2020-11-14 00:00:00 9.4 5 Este 9 Este 0 979.5 -- 95
2020-11-13 23:00:00 9.3 8 Este 15 Este 0 979.4 -- 95
2020-11-13 22:00:00 9.4 12 Este 15 Nordeste 0 979 -- 94
2020-11-13 21:00:00 9.5 8 Nordeste 13 Este 0 978.9 -- 94
2020-11-13 20:00:00 9.7 10 Este 11 Este 0 978.8 -- 94
2020-11-13 19:00:00 9.8 7 Este -- -- 0 978.8 -- 94
2020-11-13 18:00:00 10 6 Este 9 Nordeste 0 978.5 -- 94
2020-11-13 17:00:00 10 9 Este 13 Este 0 978.6 -- 93
2020-11-13 16:00:00 10 8 Este 11 Sudeste 0 978.6 -- 93
2020-11-13 15:00:00 10.1 10 Este 13 Este 0 978.8 -- 93
2020-11-13 14:00:00 10.2 8 Este 15 Nordeste 0 979.1 -- 93
2020-11-13 13:00:00 10.4 5 Este 11 Nordeste 0 979.4 -- 92
2020-11-13 12:00:00 10 4 Este 8 Este 0 980 -- 96
2020-11-13 11:00:00 9.4 3 Nordeste 5 Nordeste 0 980.3 -- 99
2020-11-13 10:00:00 9.2 5 Este -- -- 0 980.3 -- 100
2020-11-13 09:00:00 9 6 Nordeste 8 Nordeste 0 980 -- 100
2020-11-13 08:00:00 8.9 6 Este 9 Este 0 979.4 -- 100
2020-11-13 07:00:00 8.9 9 Este 15 Nordeste 0 979.1 -- 100
2020-11-13 06:00:00 8.9 10 Este 18 Este 0 978.8 -- 100
2020-11-13 05:00:00 9 14 Nordeste 17 Nordeste 0 978.4 -- 100
2020-11-13 04:00:00 9 10 Nordeste 15 Nordeste 0 978.9 -- 100
2020-11-13 03:00:00 8.9 9 Nordeste 15 Nordeste 0 979 -- 100
2020-11-13 02:00:00 8.9 10 Nordeste 18 Nordeste 0 979.2 -- 100
2020-11-13 01:00:00 8.8 12 Este 15 Este 0 979.8 -- 100
2020-11-13 00:00:00 8.5 7 Nordeste 22 Nordeste 0 980 -- 100
2020-11-12 23:00:00 8.4 19 Este 24 Este 0 979.9 -- 99
2020-11-12 22:00:00 8.7 14 Este 21 Nordeste 0 979.7 -- 98
2020-11-12 21:00:00 9.2 10 Este 13 Este 0 979.4 -- 95
2020-11-12 20:00:00 9.5 7 Este 8 Este 0 979.5 -- 93
2020-11-12 19:00:00 9.6 0 Calma 5 Este 0 979.4 -- 92
2020-11-12 18:00:00 9.6 5 Sudeste 13 Sudeste 0 979.3 -- 90
2020-11-12 17:00:00 10.2 11 Sudeste 15 Sudeste 0 979.5 -- 88
2020-11-12 16:00:00 10 9 Este 13 Este 0 979.6 -- 89
2020-11-12 15:00:00 9.3 10 Este 15 Este 0 979.9 -- 92
2020-11-12 14:00:00 9.1 9 Este 15 Este 0 980.3 -- 93
2020-11-12 13:00:00 8.9 7 Este 13 Nordeste 0 980.7 -- 92
2020-11-12 12:00:00 8.6 4 Sudeste 9 Este -- 981.7 -- 93
2020-11-12 11:00:00 7.7 2 Noroeste 8 Este 0 981.9 -- 96
2020-11-12 10:00:00 7.4 5 Sudeste 8 Sudeste 0 982 -- 99
2020-11-12 09:00:00 7 6 Sudoeste 9 Sudoeste 0 981.7 -- 99
2020-11-12 08:00:00 7.4 2 Sudeste 9 Oeste 0 981.2 -- 99
2020-11-12 07:00:00 7.8 5 Sudoeste 8 Oeste 0 980.9 -- 99
2020-11-12 06:00:00 7.8 5 Sudeste 8 Sudeste 0 980.9 -- 99
2020-11-12 05:00:00 7.9 3 Oeste 5 Oeste 0 981 -- 100
2020-11-12 04:00:00 8.1 3 Sur 8 Este 0 981.3 -- 100
2020-11-12 03:00:00 8.1 0 Calma 8 Norte 0 981.7 -- 99
2020-11-12 02:00:00 8.3 5 Este 5 Este 0 981.6 -- 99
2020-11-12 01:00:00 8.4 3 Sudeste 8 Este 0 981.7 -- 98
2020-11-12 00:00:00 8.3 4 Sudoeste 11 Sur 0 981.8 -- 98
2020-11-11 23:00:00 8.7 4 Oeste 8 Oeste 0 981.8 -- 97
2020-11-11 22:00:00 8.7 4 Sudoeste 9 Sur 0 981.3 -- 96
2020-11-11 21:00:00 8.9 2 Nordeste 11 Norte 0 981.1 -- 94
2020-11-11 20:00:00 8.8 3 Oeste 8 Sudoeste 0 981.2 -- 94
2020-11-11 19:00:00 9 0 Calma 5 Oeste 0 981.1 -- 93
2020-11-11 18:00:00 9.2 2 Oeste 5 Norte 0 980.8 -- 92
2020-11-11 17:00:00 9.3 2 Sur 13 Sur 0 980.8 -- 91
2020-11-11 16:00:00 8.9 4 Sur 11 Sudeste 0 980.9 -- 92
2020-11-11 15:00:00 8.8 10 Este 13 Sudeste 0 980.8 -- 93
2020-11-11 14:00:00 8.5 11 Este 15 Este 0 981.2 -- 95
2020-11-11 13:00:00 8 13 Este 17 Nordeste 0 981.7 -- 97
2020-11-11 12:00:00 7.7 8 Nordeste 13 Nordeste 0 982.6 -- 99
2020-11-11 11:00:00 7.2 8 Este 11 Este 0 983 -- 100
2020-11-11 10:00:00 5.9 0 Calma 4 Este 0 983 -- 100
2020-11-11 09:00:00 4.8 3 Nordeste 9 Oeste 0 983.2 -- 100
2020-11-11 08:00:00 3.6 3 Oeste 8 Oeste 0 983.1 -- 100
2020-11-11 07:00:00 3.2 0 Calma 5 Oeste 0 983.1 -- 100
2020-11-11 06:00:00 3.1 2 Norte 5 Nordeste 0 983 -- 100
2020-11-11 05:00:00 3.6 0 Calma 4 Norte 0 983.1 -- 99
2020-11-11 04:00:00 4.9 0 Calma 8 Nordeste 0 983.4 -- 100
2020-11-11 03:00:00 5.4 0 Calma 5 Oeste 0 983.8 -- 99
2020-11-11 02:00:00 6 0 Calma 9 Sudoeste 0 984.1 -- 96
2020-11-11 01:00:00 7.6 8 Sudoeste 9 Sudoeste 0 984.7 -- 96
2020-11-11 00:00:00 6.7 0 Calma 5 Oeste 0 984.6 -- 97
2020-11-10 23:00:00 8 -- -- -- -- 0 984.9 -- 96
2020-11-10 22:00:00 8.2 2 Oeste 4 Oeste 0 984.6 -- 96
2020-11-10 21:00:00 9.2 0 Calma 5 Oeste 0 984 -- 91
2020-11-10 20:00:00 10.4 4 Sudoeste 8 Sudoeste 0 983.7 -- 87
2020-11-10 19:00:00 12.2 4 Sur 9 Sudoeste 0 983.7 -- 78
2020-11-10 18:00:00 15.5 7 Sudoeste 9 Sudoeste 0 983.7 -- 63
2020-11-10 17:00:00 18 5 Sudoeste 13 Norte 0 983.3 -- 56
2020-11-10 16:00:00 18.5 5 Norte 15 Norte 0 983.2 -- 54
2020-11-10 15:00:00 18.6 10 Sudoeste 18 Sudoeste 0 983.6 -- 53
2020-11-10 14:00:00 18.2 11 Sudoeste 21 Oeste 0 984.3 -- 55
2020-11-10 13:00:00 16.9 11 Oeste 22 Sudoeste 0 984.7 -- 62
2020-11-10 12:00:00 15.8 12 Oeste 17 Oeste 0 985.2 -- 66
2020-11-10 11:00:00 13.9 10 Oeste 17 Sudoeste 0 985.2 -- 73
2020-11-10 10:00:00 12 8 Oeste 13 Oeste 0 985.1 -- 80
2020-11-10 09:00:00 10.3 10 Oeste 18 Sudoeste 0 984.8 -- 87
2020-11-10 08:00:00 8.9 9 Sudoeste 13 Sudoeste 0 984.1 -- 92
2020-11-10 07:00:00 8.2 10 Sudoeste 13 Sudoeste 0 983.6 -- 94
2020-11-10 06:00:00 8 8 Oeste 11 Oeste 0 983.2 -- 93
2020-11-10 05:00:00 8.3 7 Sudoeste 11 Oeste 0 982.8 -- 92
2020-11-10 04:00:00 8.6 6 Oeste 13 Oeste 0 982.7 -- 92
2020-11-10 03:00:00 8.4 7 Sudoeste 9 Oeste 0 982.8 -- 96
2020-11-10 02:00:00 8.3 2 Oeste 9 Oeste 0 982.6 -- 95
2020-11-10 01:00:00 8.2 6 Sudoeste 13 Oeste 0 982.6 -- 96
2020-11-10 00:00:00 8.5 8 Sudoeste 11 Sudoeste 0 982.5 -- 98
2020-11-09 23:00:00 7.9 4 Sudoeste 8 Oeste 0 982.2 -- 99
2020-11-09 22:00:00 8.9 6 Sudoeste 8 Sudoeste 0 982 -- 99
2020-11-09 21:00:00 9.4 4 Noroeste 9 Oeste 0 981.6 -- 98
2020-11-09 20:00:00 10.2 3 Norte 9 Norte 0 981.3 -- 96
2020-11-09 19:00:00 11.7 6 Sudoeste 9 Sudoeste 0 980.7 -- 92
2020-11-09 18:00:00 13.7 2 Norte 17 Sur 0 980.1 -- 82
2020-11-09 17:00:00 15.1 10 Sur 17 Sur 0 979.7 -- 77
2020-11-09 16:00:00 15.9 0 Calma 11 Norte 0 979.6 -- 68
2020-11-09 15:00:00 16.5 5 Nordeste 15 Este 0 979.4 -- 64
2020-11-09 14:00:00 15.2 11 Este 18 Este 0 979.6 -- 71
2020-11-09 13:00:00 14.7 7 Este 13 Nordeste 0 979.7 -- 73
2020-11-09 12:00:00 13.3 4 Norte 9 Este 0 980.4 -- 77
2020-11-09 11:00:00 11.8 6 Nordeste 9 Nordeste 0 980.3 -- 88
2020-11-09 10:00:00 10.4 6 Sudoeste 9 Sudoeste 0 980.2 -- 94
2020-11-09 09:00:00 9.7 6 Oeste 17 Oeste 0 979.9 -- 97
2020-11-09 08:00:00 9.8 8 Sudeste 13 Sudeste 0 979.1 -- 94
2020-11-09 07:00:00 9.3 6 Sudeste 9 Este 0 978.6 -- 97
2020-11-09 06:00:00 8.7 5 Este 8 Este 0 978.1 -- 98
2020-11-09 05:00:00 8.6 5 Este 9 Este 0 977.6 -- 100
2020-11-09 04:00:00 7.9 3 Norte 8 Nordeste 0 977.7 -- 97
2020-11-09 03:00:00 9.2 3 Este 11 Este 0 978.3 -- 97
2020-11-09 02:00:00 9.6 6 Este 9 Este 0 978 -- 96
2020-11-09 01:00:00 10.3 0 Calma 8 Nordeste 0 978.2 -- 95
2020-11-09 00:00:00 10.5 2 Norte 9 Este 0 978.4 -- 96
2020-11-08 23:00:00 10.5 7 Este 11 Nordeste 0 978.1 -- 94
2020-11-08 22:00:00 10.2 5 Este 11 Este 0 977.8 -- 93
2020-11-08 21:00:00 10.7 9 Nordeste 11 Nordeste 0 977.6 -- 90
2020-11-08 20:00:00 12 9 Este 21 Este 0 977.5 -- 88
2020-11-08 19:00:00 13 12 Este 18 Nordeste 0 977.5 -- 84
2020-11-08 18:00:00 14.9 16 Este 28 Este 0 977 -- 77
2020-11-08 17:00:00 17.2 22 Este 30 Este 0 976.9 -- 65
2020-11-08 16:00:00 17.2 19 Este 28 Este 0 977.1 -- 66
2020-11-08 15:00:00 17 22 Este 28 Este 0 977.5 -- 67
2020-11-08 14:00:00 14.8 15 Este 21 Este 0 978.1 -- 83
2020-11-08 13:00:00 12 15 Este 22 Este 0 979.2 -- 94
2020-11-08 12:00:00 10.6 14 Este 18 Este 0 980 -- 97
2020-11-08 11:00:00 9.6 13 Este 18 Este 0 980.1 -- 98
2020-11-08 10:00:00 9.3 11 Este 21 Este 0 980.2 -- 100
2020-11-08 09:00:00 9.3 11 Este 21 Nordeste 0 980.1 -- 100
2020-11-08 08:00:00 9.2 13 Este 17 Este 0 979.6 -- 100
2020-11-08 07:00:00 9.3 7 Este 9 Este 0 979.4 -- 100
2020-11-08 06:00:00 9.6 8 Nordeste 11 Nordeste 0 979.5 -- 100
2020-11-08 05:00:00 10.2 3 Noroeste 9 Este 0 979.6 -- 100
2020-11-08 04:00:00 10.8 4 Norte 8 Este 0 979.5 -- 100
2020-11-08 03:00:00 11.4 6 Este 9 Este 0 979.8 -- 100
2020-11-08 02:00:00 12.1 2 Este 13 Este 0 979.7 -- 99
2020-11-08 01:00:00 12.5 5 Sudeste 9 Nordeste 0 979.6 -- 100
2020-11-08 00:00:00 12.6 5 Sudeste 11 Sudeste 0 979.3 -- 100
2020-11-07 23:00:00 12.6 7 Sudeste 9 Sudeste 0 978.9 -- 100
2020-11-07 22:00:00 12.6 3 Norte 4 Norte 0 978.5 -- 100
2020-11-07 21:00:00 11.8 2 Sur 8 Noroeste 0 977.9 -- 100
2020-11-07 20:00:00 12.7 3 Sur 5 Sur 0 977.1 -- 97
2020-11-07 19:00:00 13.7 5 Sudeste 8 Sudeste 0 976.5 -- 98
2020-11-07 18:00:00 14.3 4 Norte 8 Norte 0 975.6 -- 97
2020-11-07 17:00:00 15.1 6 Este 13 Este 0 975.1 -- 96
2020-11-07 16:00:00 15.7 11 Nordeste 13 Nordeste 0 974.8 -- 91
2020-11-07 15:00:00 16.1 9 Nordeste 18 Nordeste 0 974.1 -- 88
2020-11-07 14:00:00 14.9 13 Nordeste 22 Este 0 973.7 -- 91
2020-11-07 13:00:00 14.2 19 Este 28 Este 0 973.7 -- 92
2020-11-07 12:00:00 13.7 17 Este 28 Este 0.2 973.6 -- 96
2020-11-07 11:00:00 13.8 17 Este 28 Este 0 973.3 -- 89
2020-11-07 10:00:00 12.8 12 Este 26 Este 0 972.7 -- 94
2020-11-07 09:00:00 13.7 16 Este 33 Este 0 972.2 -- 91
2020-11-07 08:00:00 13.6 9 Este 17 Este 9.4 970 -- 96
2020-11-07 07:00:00 14.1 11 Nordeste 22 Este 10.1 971.5 -- 98
2020-11-07 06:00:00 14.5 21 Este 45 Este 1.8 971.6 -- 96
2020-11-07 05:00:00 15.7 39 Este 48 Este 0 972.3 -- 84
2020-11-07 04:00:00 15.9 26 Este 42 Sudeste 0 973.3 -- 82
2020-11-07 03:00:00 16 31 Este 46 Este 0 973.7 -- 81
2020-11-07 02:00:00 15.8 33 Este 52 Este 0 973.7 -- 83
2020-11-07 01:00:00 16 30 Este 52 Este 0 974.2 -- 82
2020-11-07 00:00:00 16.2 27 Este 59 Este 0 974.7 -- 82
2020-11-06 23:00:00 16.3 36 Este 63 Este 0 974.5 -- 82
2020-11-06 22:00:00 16.3 35 Este 52 Este 0 974.5 -- 81
2020-11-06 21:00:00 16.2 29 Este 45 Este 0 974.9 -- 80
2020-11-06 20:00:00 16.3 26 Este 42 Este 0 975.4 -- 80
2020-11-06 19:00:00 16.5 31 Este 42 Nordeste 0 975.7 -- 78
2020-11-06 18:00:00 16.6 23 Este 48 Nordeste 0 975.5 -- 79
2020-11-06 17:00:00 16.5 28 Este 50 Este 0 975.5 -- 81
2020-11-06 16:00:00 16.3 34 Este 46 Este 0 975.4 -- 83
2020-11-06 15:00:00 15.3 30 Este 46 Este 0 976.5 -- 87
2020-11-06 14:00:00 15.4 30 Este 58 Este 0 977.5 -- 87
2020-11-06 13:00:00 15.3 38 Este 52 Este 0 977.9 -- 87
2020-11-06 12:00:00 14.8 28 Este 46 Este 0 979.4 -- 89
2020-11-06 11:00:00 13.9 26 Este 42 Este 0 979.9 0.2 93
2020-11-06 10:00:00 13.9 22 Este 41 Este 0 979.9 -- 94
2020-11-06 09:00:00 13.2 31 Este 45 Este 0 979.9 -- 96
2020-11-06 08:00:00 13.3 28 Este 41 Este 0 979.7 -- 94
2020-11-06 07:00:00 13.4 32 Este 46 Este 0 979.8 -- 93
2020-11-06 06:00:00 13.7 31 Este 46 Este 0 979.3 -- 91
2020-11-06 05:00:00 13 24 Este 41 Este 0 979 -- 95
2020-11-06 04:00:00 12.8 23 Este 41 Este 0 979.2 -- 95
2020-11-06 03:00:00 12.5 23 Este 32 Este 0 979.7 -- 96
2020-11-06 02:00:00 12.7 19 Este 33 Este 0 979.6 -- 94
2020-11-06 01:00:00 12 26 Este 35 Este 0 979.6 -- 97
2020-11-06 00:00:00 11.3 21 Este 28 Este 0.4 979.5 -- 98
2020-11-05 23:00:00 11.1 17 Este 26 Este 0.1 980.6 -- 97
2020-11-05 22:00:00 11.6 19 Este 26 Este 0 980.8 -- 91
2020-11-05 21:00:00 11.7 19 Este 24 Este 0 980.8 -- 90
2020-11-05 20:00:00 12 20 Este 28 Este 0 981.1 -- 84
2020-11-05 19:00:00 12.2 16 Nordeste 28 Este 0 981.3 -- 82
2020-11-05 18:00:00 12.4 20 Este 30 Este 0 981.2 -- 80
2020-11-05 17:00:00 12.4 18 Este 32 Nordeste 0 981.2 -- 77
2020-11-05 16:00:00 13.1 26 Este 41 Este 0 981.5 -- 72
2020-11-05 15:00:00 14 32 Este 41 Este 0 981.4 -- 66
2020-11-05 14:00:00 13.7 26 Este 41 Este 0 982.1 -- 68
2020-11-05 13:00:00 15 24 Este 33 Este 0 982.8 -- 61
2020-11-05 12:00:00 13.7 19 Este 26 Nordeste 0 983.5 -- 69
2020-11-05 11:00:00 10.7 16 Este 21 Este 0 984.2 -- 82
2020-11-05 10:00:00 9.6 12 Este 15 Este 0 983.9 -- 86
2020-11-05 09:00:00 8.6 6 Este 17 Este 0 983.8 -- 92
2020-11-05 08:00:00 8.3 10 Este 11 Este 0 983.2 -- 94
2020-11-05 07:00:00 8.5 4 Este 9 Este 0 983.3 -- 93
2020-11-05 06:00:00 8.6 5 Este 5 Nordeste 0 983.3 -- 95
2020-11-05 05:00:00 8.6 3 Nordeste 8 Nordeste 0 983.6 -- 95
2020-11-05 04:00:00 8.8 3 Sudoeste 9 Sudeste 0 983.7 -- 89
2020-11-05 03:00:00 8.6 4 Sudoeste 9 Sudeste 0 984.1 -- 93
2020-11-05 02:00:00 8.5 2 Nordeste -- -- 0 983.8 -- 96
2020-11-05 01:00:00 8.5 6 Este -- -- 0 983.7 -- 96
2020-11-05 00:00:00 8.7 2 Sur 11 Sur 0 984 -- 92